sensor_id;sensor_type;location;lat;lon;timestamp;P1;durP1;ratioP1;P2;durP2;ratioP2
5022;SDS011;2530;47.990;7.866;2023-06-22T00:01:50;11.53;;;7.57;;
5022;SDS011;2530;47.990;7.866;2023-06-22T00:04:16;8.50;;;6.23;;
5022;SDS011;2530;47.990;7.866;2023-06-22T00:06:41;7.20;;;6.50;;
5022;SDS011;2530;47.990;7.866;2023-06-22T00:09:07;10.37;;;6.17;;
5022;SDS011;2530;47.990;7.866;2023-06-22T00:11:33;8.52;;;6.40;;
5022;SDS011;2530;47.990;7.866;2023-06-22T00:14:01;8.60;;;6.40;;
5022;SDS011;2530;47.990;7.866;2023-06-22T00:16:27;8.15;;;6.65;;
5022;SDS011;2530;47.990;7.866;2023-06-22T00:18:52;9.50;;;6.40;;
5022;SDS011;2530;47.990;7.866;2023-06-22T00:21:18;9.20;;;6.70;;
5022;SDS011;2530;47.990;7.866;2023-06-22T00:23:45;9.23;;;7.22;;
5022;SDS011;2530;47.990;7.866;2023-06-22T00:26:11;8.27;;;6.53;;
5022;SDS011;2530;47.990;7.866;2023-06-22T00:28:36;8.67;;;6.83;;
5022;SDS011;2530;47.990;7.866;2023-06-22T00:31:02;9.60;;;6.70;;
5022;SDS011;2530;47.990;7.866;2023-06-22T00:33:27;9.50;;;7.07;;
5022;SDS011;2530;47.990;7.866;2023-06-22T00:35:53;8.83;;;7.10;;
5022;SDS011;2530;47.990;7.866;2023-06-22T00:38:19;8.70;;;6.30;;
5022;SDS011;2530;47.990;7.866;2023-06-22T00:40:45;9.07;;;7.18;;
5022;SDS011;2530;47.990;7.866;2023-06-22T00:43:10;7.97;;;6.00;;
5022;SDS011;2530;47.990;7.866;2023-06-22T00:45:36;11.00;;;7.07;;
5022;SDS011;2530;47.990;7.866;2023-06-22T00:48:01;8.83;;;6.87;;
5022;SDS011;2530;47.990;7.866;2023-06-22T00:50:31;9.38;;;6.80;;
5022;SDS011;2530;47.990;7.866;2023-06-22T00:52:59;9.70;;;6.50;;
5022;SDS011;2530;47.990;7.866;2023-06-22T00:55:26;12.35;;;7.15;;
5022;SDS011;2530;47.990;7.866;2023-06-22T00:57:52;9.93;;;6.63;;
5022;SDS011;2530;47.990;7.866;2023-06-22T01:00:22;11.30;;;6.70;;
5022;SDS011;2530;47.990;7.866;2023-06-22T01:02:50;8.57;;;6.78;;
5022;SDS011;2530;47.990;7.866;2023-06-22T01:05:19;7.80;;;6.32;;
5022;SDS011;2530;47.990;7.866;2023-06-22T01:13:16;7.72;;;6.30;;
5022;SDS011;2530;47.990;7.866;2023-06-22T01:16:03;8.93;;;6.70;;
5022;SDS011;2530;47.990;7.866;2023-06-22T01:18:40;9.50;;;6.90;;
5022;SDS011;2530;47.990;7.866;2023-06-22T01:21:07;7.45;;;6.30;;
5022;SDS011;2530;47.990;7.866;2023-06-22T01:29:13;9.38;;;7.00;;
5022;SDS011;2530;47.990;7.866;2023-06-22T01:31:41;10.00;;;7.20;;
5022;SDS011;2530;47.990;7.866;2023-06-22T01:34:09;10.80;;;7.20;;
5022;SDS011;2530;47.990;7.866;2023-06-22T01:36:37;11.05;;;7.80;;
5022;SDS011;2530;47.990;7.866;2023-06-22T01:39:04;11.05;;;7.55;;
5022;SDS011;2530;47.990;7.866;2023-06-22T01:41:37;8.77;;;6.80;;
5022;SDS011;2530;47.990;7.866;2023-06-22T01:44:05;10.60;;;7.03;;
5022;SDS011;2530;47.990;7.866;2023-06-22T01:46:36;10.88;;;6.82;;
5022;SDS011;2530;47.990;7.866;2023-06-22T01:49:04;10.50;;;7.30;;
5022;SDS011;2530;47.990;7.866;2023-06-22T01:51:30;11.32;;;6.93;;
5022;SDS011;2530;47.990;7.866;2023-06-22T01:53:56;9.85;;;7.05;;
5022;SDS011;2530;47.990;7.866;2023-06-22T01:56:22;10.60;;;6.90;;
5022;SDS011;2530;47.990;7.866;2023-06-22T02:01:42;9.75;;;6.30;;
5022;SDS011;2530;47.990;7.866;2023-06-22T02:04:32;8.82;;;7.15;;
5022;SDS011;2530;47.990;7.866;2023-06-22T02:07:03;10.75;;;7.22;;
5022;SDS011;2530;47.990;7.866;2023-06-22T02:09:33;9.52;;;6.30;;
5022;SDS011;2530;47.990;7.866;2023-06-22T02:12:02;8.80;;;6.73;;
5022;SDS011;2530;47.990;7.866;2023-06-22T02:14:29;14.00;;;7.50;;
5022;SDS011;2530;47.990;7.866;2023-06-22T02:16:55;9.20;;;6.90;;
5022;SDS011;2530;47.990;7.866;2023-06-22T02:19:24;12.13;;;7.20;;
5022;SDS011;2530;47.990;7.866;2023-06-22T02:21:50;9.68;;;6.88;;
5022;SDS011;2530;47.990;7.866;2023-06-22T02:24:16;9.43;;;7.23;;
5022;SDS011;2530;47.990;7.866;2023-06-22T02:26:42;11.20;;;7.10;;
5022;SDS011;2530;47.990;7.866;2023-06-22T02:29:10;9.10;;;7.18;;
5022;SDS011;2530;47.990;7.866;2023-06-22T02:31:36;7.18;;;6.40;;
5022;SDS011;2530;47.990;7.866;2023-06-22T02:34:01;9.35;;;6.38;;
5022;SDS011;2530;47.990;7.866;2023-06-22T02:36:27;8.77;;;6.30;;
5022;SDS011;2530;47.990;7.866;2023-06-22T02:38:55;9.40;;;7.03;;
5022;SDS011;2530;47.990;7.866;2023-06-22T02:41:25;8.13;;;6.80;;
5022;SDS011;2530;47.990;7.866;2023-06-22T02:43:51;8.48;;;7.07;;
5022;SDS011;2530;47.990;7.866;2023-06-22T02:46:17;10.60;;;6.80;;
5022;SDS011;2530;47.990;7.866;2023-06-22T02:48:42;10.25;;;7.07;;
5022;SDS011;2530;47.990;7.866;2023-06-22T02:51:08;10.40;;;7.03;;
5022;SDS011;2530;47.990;7.866;2023-06-22T02:53:33;7.18;;;6.18;;
5022;SDS011;2530;47.990;7.866;2023-06-22T02:56:01;8.00;;;6.47;;
5022;SDS011;2530;47.990;7.866;2023-06-22T02:58:28;9.60;;;6.60;;
5022;SDS011;2530;47.990;7.866;2023-06-22T03:00:53;10.63;;;7.47;;
5022;SDS011;2530;47.990;7.866;2023-06-22T03:03:19;12.03;;;7.73;;
5022;SDS011;2530;47.990;7.866;2023-06-22T03:05:45;11.90;;;7.00;;
5022;SDS011;2530;47.990;7.866;2023-06-22T03:08:10;10.73;;;6.75;;
5022;SDS011;2530;47.990;7.866;2023-06-22T03:10:36;9.70;;;7.20;;
5022;SDS011;2530;47.990;7.866;2023-06-22T03:13:02;9.30;;;6.60;;
5022;SDS011;2530;47.990;7.866;2023-06-22T03:15:27;7.93;;;6.47;;
5022;SDS011;2530;47.990;7.866;2023-06-22T03:17:54;9.13;;;7.32;;
5022;SDS011;2530;47.990;7.866;2023-06-22T03:20:20;12.45;;;6.93;;
5022;SDS011;2530;47.990;7.866;2023-06-22T03:22:46;11.33;;;6.83;;
5022;SDS011;2530;47.990;7.866;2023-06-22T03:25:13;11.02;;;6.28;;
5022;SDS011;2530;47.990;7.866;2023-06-22T03:27:39;10.00;;;6.50;;
5022;SDS011;2530;47.990;7.866;2023-06-22T03:30:06;10.10;;;6.80;;
5022;SDS011;2530;47.990;7.866;2023-06-22T03:32:33;8.73;;;6.88;;
5022;SDS011;2530;47.990;7.866;2023-06-22T03:34:59;8.30;;;6.13;;
5022;SDS011;2530;47.990;7.866;2023-06-22T03:37:25;10.30;;;6.80;;
5022;SDS011;2530;47.990;7.866;2023-06-22T03:39:51;7.75;;;6.55;;
5022;SDS011;2530;47.990;7.866;2023-06-22T03:42:17;10.00;;;7.00;;
5022;SDS011;2530;47.990;7.866;2023-06-22T03:44:42;8.47;;;6.87;;
5022;SDS011;2530;47.990;7.866;2023-06-22T03:47:08;9.77;;;6.65;;
5022;SDS011;2530;47.990;7.866;2023-06-22T03:49:34;11.60;;;7.40;;
5022;SDS011;2530;47.990;7.866;2023-06-22T03:52:00;7.70;;;6.90;;
5022;SDS011;2530;47.990;7.866;2023-06-22T03:54:28;10.63;;;7.38;;
5022;SDS011;2530;47.990;7.866;2023-06-22T03:56:54;14.02;;;7.68;;
5022;SDS011;2530;47.990;7.866;2023-06-22T03:59:21;10.50;;;6.93;;
5022;SDS011;2530;47.990;7.866;2023-06-22T04:01:46;8.53;;;6.70;;
5022;SDS011;2530;47.990;7.866;2023-06-22T04:04:12;12.00;;;7.00;;
5022;SDS011;2530;47.990;7.866;2023-06-22T04:06:38;10.30;;;6.30;;
5022;SDS011;2530;47.990;7.866;2023-06-22T04:09:03;12.13;;;6.80;;
5022;SDS011;2530;47.990;7.866;2023-06-22T04:11:30;8.90;;;6.38;;
5022;SDS011;2530;47.990;7.866;2023-06-22T04:13:56;11.05;;;6.75;;
5022;SDS011;2530;47.990;7.866;2023-06-22T04:16:21;8.17;;;7.37;;
5022;SDS011;2530;47.990;7.866;2023-06-22T04:18:47;10.55;;;7.40;;
5022;SDS011;2530;47.990;7.866;2023-06-22T04:21:13;8.67;;;6.50;;
5022;SDS011;2530;47.990;7.866;2023-06-22T04:23:38;7.70;;;6.80;;
5022;SDS011;2530;47.990;7.866;2023-06-22T04:26:04;10.10;;;7.20;;
5022;SDS011;2530;47.990;7.866;2023-06-22T04:28:30;9.35;;;6.97;;
5022;SDS011;2530;47.990;7.866;2023-06-22T04:31:00;12.23;;;7.50;;
5022;SDS011;2530;47.990;7.866;2023-06-22T04:33:27;7.97;;;6.80;;
5022;SDS011;2530;47.990;7.866;2023-06-22T04:35:56;9.35;;;6.97;;
5022;SDS011;2530;47.990;7.866;2023-06-22T04:38:23;11.30;;;7.00;;
5022;SDS011;2530;47.990;7.866;2023-06-22T04:40:50;10.02;;;6.50;;
5022;SDS011;2530;47.990;7.866;2023-06-22T04:43:16;9.80;;;7.15;;
5022;SDS011;2530;47.990;7.866;2023-06-22T04:45:41;8.00;;;6.90;;
5022;SDS011;2530;47.990;7.866;2023-06-22T04:48:07;9.90;;;6.87;;
5022;SDS011;2530;47.990;7.866;2023-06-22T04:50:50;8.15;;;6.90;;
5022;SDS011;2530;47.990;7.866;2023-06-22T04:53:38;10.77;;;6.90;;
5022;SDS011;2530;47.990;7.866;2023-06-22T04:56:06;6.90;;;6.20;;
5022;SDS011;2530;47.990;7.866;2023-06-22T04:58:32;9.95;;;6.90;;
5022;SDS011;2530;47.990;7.866;2023-06-22T05:01:01;8.93;;;7.40;;
5022;SDS011;2530;47.990;7.866;2023-06-22T05:03:28;10.63;;;7.40;;
5022;SDS011;2530;47.990;7.866;2023-06-22T05:05:54;8.80;;;6.70;;
5022;SDS011;2530;47.990;7.866;2023-06-22T05:08:20;8.30;;;6.95;;
5022;SDS011;2530;47.990;7.866;2023-06-22T05:10:48;9.70;;;7.30;;
5022;SDS011;2530;47.990;7.866;2023-06-22T05:13:14;11.00;;;7.07;;
5022;SDS011;2530;47.990;7.866;2023-06-22T05:15:39;12.97;;;7.30;;
5022;SDS011;2530;47.990;7.866;2023-06-22T05:18:05;9.13;;;7.43;;
5022;SDS011;2530;47.990;7.866;2023-06-22T05:20:31;11.45;;;8.10;;
5022;SDS011;2530;47.990;7.866;2023-06-22T05:22:58;10.48;;;6.93;;
5022;SDS011;2530;47.990;7.866;2023-06-22T05:25:24;12.63;;;7.70;;
5022;SDS011;2530;47.990;7.866;2023-06-22T05:27:50;11.30;;;7.28;;
5022;SDS011;2530;47.990;7.866;2023-06-22T05:30:16;8.13;;;7.22;;
5022;SDS011;2530;47.990;7.866;2023-06-22T05:32:43;10.52;;;7.53;;
5022;SDS011;2530;47.990;7.866;2023-06-22T05:35:09;9.48;;;7.65;;
5022;SDS011;2530;47.990;7.866;2023-06-22T05:37:34;10.53;;;7.90;;
5022;SDS011;2530;47.990;7.866;2023-06-22T05:40:00;13.30;;;7.60;;
5022;SDS011;2530;47.990;7.866;2023-06-22T05:42:25;8.93;;;7.60;;
5022;SDS011;2530;47.990;7.866;2023-06-22T05:44:52;8.13;;;7.33;;
5022;SDS011;2530;47.990;7.866;2023-06-22T05:47:18;11.23;;;7.47;;
5022;SDS011;2530;47.990;7.866;2023-06-22T05:49:43;10.00;;;6.90;;
5022;SDS011;2530;47.990;7.866;2023-06-22T05:52:09;9.53;;;7.00;;
5022;SDS011;2530;47.990;7.866;2023-06-22T05:54:35;10.17;;;7.20;;
5022;SDS011;2530;47.990;7.866;2023-06-22T05:57:00;8.87;;;7.30;;
5022;SDS011;2530;47.990;7.866;2023-06-22T05:59:26;10.02;;;7.85;;
5022;SDS011;2530;47.990;7.866;2023-06-22T06:01:52;10.27;;;7.70;;
5022;SDS011;2530;47.990;7.866;2023-06-22T06:04:18;10.65;;;7.88;;
5022;SDS011;2530;47.990;7.866;2023-06-22T06:06:43;8.80;;;7.80;;
5022;SDS011;2530;47.990;7.866;2023-06-22T06:09:09;8.82;;;7.00;;
5022;SDS011;2530;47.990;7.866;2023-06-22T06:11:36;10.65;;;8.05;;
5022;SDS011;2530;47.990;7.866;2023-06-22T06:14:02;10.90;;;7.93;;
5022;SDS011;2530;47.990;7.866;2023-06-22T06:16:27;9.27;;;8.23;;
5022;SDS011;2530;47.990;7.866;2023-06-22T06:18:53;11.47;;;8.53;;
5022;SDS011;2530;47.990;7.866;2023-06-22T06:21:20;9.63;;;8.65;;
5022;SDS011;2530;47.990;7.866;2023-06-22T06:23:46;13.93;;;9.80;;
5022;SDS011;2530;47.990;7.866;2023-06-22T06:26:12;14.23;;;8.93;;
5022;SDS011;2530;47.990;7.866;2023-06-22T06:28:37;11.35;;;9.70;;
5022;SDS011;2530;47.990;7.866;2023-06-22T06:31:03;13.63;;;10.20;;
5022;SDS011;2530;47.990;7.866;2023-06-22T06:33:32;11.40;;;10.20;;
5022;SDS011;2530;47.990;7.866;2023-06-22T06:35:57;11.97;;;9.20;;
5022;SDS011;2530;47.990;7.866;2023-06-22T06:38:23;11.60;;;10.40;;
5022;SDS011;2530;47.990;7.866;2023-06-22T06:40:48;12.27;;;8.90;;
5022;SDS011;2530;47.990;7.866;2023-06-22T06:43:14;11.57;;;8.90;;
5022;SDS011;2530;47.990;7.866;2023-06-22T06:45:40;13.77;;;9.32;;
5022;SDS011;2530;47.990;7.866;2023-06-22T06:48:05;11.67;;;9.70;;
5022;SDS011;2530;47.990;7.866;2023-06-22T06:50:31;10.90;;;9.80;;
5022;SDS011;2530;47.990;7.866;2023-06-22T06:52:56;10.00;;;8.93;;
5022;SDS011;2530;47.990;7.866;2023-06-22T06:55:24;13.15;;;9.80;;
5022;SDS011;2530;47.990;7.866;2023-06-22T06:57:50;10.80;;;9.63;;
5022;SDS011;2530;47.990;7.866;2023-06-22T07:00:17;12.77;;;9.70;;
5022;SDS011;2530;47.990;7.866;2023-06-22T07:02:44;11.07;;;9.15;;
5022;SDS011;2530;47.990;7.866;2023-06-22T07:05:11;10.98;;;9.35;;
5022;SDS011;2530;47.990;7.866;2023-06-22T07:07:37;12.05;;;9.65;;
5022;SDS011;2530;47.990;7.866;2023-06-22T07:10:04;10.90;;;8.90;;
5022;SDS011;2530;47.990;7.866;2023-06-22T07:12:30;11.55;;;8.93;;
5022;SDS011;2530;47.990;7.866;2023-06-22T07:15:05;10.10;;;9.10;;
5022;SDS011;2530;47.990;7.866;2023-06-22T07:17:36;11.10;;;8.88;;
5022;SDS011;2530;47.990;7.866;2023-06-22T07:20:03;11.13;;;8.50;;
5022;SDS011;2530;47.990;7.866;2023-06-22T07:22:38;9.20;;;7.53;;
5022;SDS011;2530;47.990;7.866;2023-06-22T07:25:05;9.13;;;7.25;;
5022;SDS011;2530;47.990;7.866;2023-06-22T07:27:35;10.43;;;7.65;;
5022;SDS011;2530;47.990;7.866;2023-06-22T07:30:03;9.07;;;8.02;;
5022;SDS011;2530;47.990;7.866;2023-06-22T07:32:29;12.90;;;8.80;;
5022;SDS011;2530;47.990;7.866;2023-06-22T07:34:54;10.60;;;8.70;;
5022;SDS011;2530;47.990;7.866;2023-06-22T07:37:20;8.57;;;7.20;;
5022;SDS011;2530;47.990;7.866;2023-06-22T07:39:46;8.67;;;7.87;;
5022;SDS011;2530;47.990;7.866;2023-06-22T07:42:11;8.93;;;7.53;;
5022;SDS011;2530;47.990;7.866;2023-06-22T07:44:37;11.80;;;7.50;;
5022;SDS011;2530;47.990;7.866;2023-06-22T07:47:02;8.70;;;7.53;;
5022;SDS011;2530;47.990;7.866;2023-06-22T07:49:28;11.13;;;7.72;;
5022;SDS011;2530;47.990;7.866;2023-06-22T07:51:54;10.45;;;7.43;;
5022;SDS011;2530;47.990;7.866;2023-06-22T07:54:20;10.70;;;7.55;;
5022;SDS011;2530;47.990;7.866;2023-06-22T07:56:46;8.93;;;7.70;;
5022;SDS011;2530;47.990;7.866;2023-06-22T07:59:11;7.72;;;6.85;;
5022;SDS011;2530;47.990;7.866;2023-06-22T08:01:37;8.63;;;7.30;;
5022;SDS011;2530;47.990;7.866;2023-06-22T08:04:02;9.30;;;7.25;;
5022;SDS011;2530;47.990;7.866;2023-06-22T08:06:29;9.40;;;6.90;;
5022;SDS011;2530;47.990;7.866;2023-06-22T08:08:55;12.32;;;7.22;;
5022;SDS011;2530;47.990;7.866;2023-06-22T08:11:23;7.80;;;6.53;;
5022;SDS011;2530;47.990;7.866;2023-06-22T08:13:50;9.77;;;7.20;;
5022;SDS011;2530;47.990;7.866;2023-06-22T08:16:16;8.00;;;5.90;;
5022;SDS011;2530;47.990;7.866;2023-06-22T08:18:41;8.07;;;6.85;;
5022;SDS011;2530;47.990;7.866;2023-06-22T08:21:07;8.30;;;6.50;;
5022;SDS011;2530;47.990;7.866;2023-06-22T08:23:32;7.22;;;6.05;;
5022;SDS011;2530;47.990;7.866;2023-06-22T08:25:58;12.17;;;6.93;;
5022;SDS011;2530;47.990;7.866;2023-06-22T08:28:23;9.00;;;6.40;;
5022;SDS011;2530;47.990;7.866;2023-06-22T08:30:49;9.32;;;6.82;;
5022;SDS011;2530;47.990;7.866;2023-06-22T08:33:14;7.63;;;6.20;;
5022;SDS011;2530;47.990;7.866;2023-06-22T08:35:40;9.00;;;7.13;;
5022;SDS011;2530;47.990;7.866;2023-06-22T08:38:06;7.37;;;6.57;;
5022;SDS011;2530;47.990;7.866;2023-06-22T08:40:33;7.90;;;6.40;;
5022;SDS011;2530;47.990;7.866;2023-06-22T08:42:59;8.15;;;6.45;;
5022;SDS011;2530;47.990;7.866;2023-06-22T08:45:24;9.50;;;6.87;;
5022;SDS011;2530;47.990;7.866;2023-06-22T08:47:50;6.83;;;5.80;;
5022;SDS011;2530;47.990;7.866;2023-06-22T08:50:15;8.48;;;5.53;;
5022;SDS011;2530;47.990;7.866;2023-06-22T08:52:41;7.00;;;5.60;;
5022;SDS011;2530;47.990;7.866;2023-06-22T08:55:07;8.10;;;6.30;;
5022;SDS011;2530;47.990;7.866;2023-06-22T08:57:34;8.35;;;7.00;;
5022;SDS011;2530;47.990;7.866;2023-06-22T08:59:59;10.18;;;6.50;;
5022;SDS011;2530;47.990;7.866;2023-06-22T09:02:25;8.87;;;6.47;;
5022;SDS011;2530;47.990;7.866;2023-06-22T09:04:55;7.50;;;5.93;;
5022;SDS011;2530;47.990;7.866;2023-06-22T09:07:22;8.03;;;5.90;;
5022;SDS011;2530;47.990;7.866;2023-06-22T09:09:49;8.50;;;6.18;;
5022;SDS011;2530;47.990;7.866;2023-06-22T09:12:14;12.43;;;6.63;;
5022;SDS011;2530;47.990;7.866;2023-06-22T09:14:40;8.60;;;6.10;;
5022;SDS011;2530;47.990;7.866;2023-06-22T09:17:05;11.30;;;6.10;;
5022;SDS011;2530;47.990;7.866;2023-06-22T09:19:31;8.57;;;6.50;;
5022;SDS011;2530;47.990;7.866;2023-06-22T09:21:57;7.53;;;5.70;;
5022;SDS011;2530;47.990;7.866;2023-06-22T09:24:23;8.93;;;5.93;;
5022;SDS011;2530;47.990;7.866;2023-06-22T09:26:48;10.10;;;6.40;;
5022;SDS011;2530;47.990;7.866;2023-06-22T09:29:15;10.65;;;6.10;;
5022;SDS011;2530;47.990;7.866;2023-06-22T09:31:40;9.43;;;5.50;;
5022;SDS011;2530;47.990;7.866;2023-06-22T09:34:06;8.18;;;5.65;;
5022;SDS011;2530;47.990;7.866;2023-06-22T09:36:32;10.68;;;6.72;;
5022;SDS011;2530;47.990;7.866;2023-06-22T09:38:57;10.53;;;5.60;;
5022;SDS011;2530;47.990;7.866;2023-06-22T09:41:23;8.63;;;5.88;;
5022;SDS011;2530;47.990;7.866;2023-06-22T09:43:49;8.23;;;6.07;;
5022;SDS011;2530;47.990;7.866;2023-06-22T09:46:15;9.10;;;6.20;;
5022;SDS011;2530;47.990;7.866;2023-06-22T09:48:41;7.85;;;5.63;;
5022;SDS011;2530;47.990;7.866;2023-06-22T09:51:07;9.53;;;5.50;;
5022;SDS011;2530;47.990;7.866;2023-06-22T09:53:32;11.23;;;5.60;;
5022;SDS011;2530;47.990;7.866;2023-06-22T09:55:59;11.00;;;6.70;;
5022;SDS011;2530;47.990;7.866;2023-06-22T09:58:25;10.85;;;5.68;;
5022;SDS011;2530;47.990;7.866;2023-06-22T10:00:51;8.93;;;5.90;;
5022;SDS011;2530;47.990;7.866;2023-06-22T10:03:17;10.88;;;5.53;;
5022;SDS011;2530;47.990;7.866;2023-06-22T10:05:43;8.20;;;5.33;;
5022;SDS011;2530;47.990;7.866;2023-06-22T10:08:09;8.30;;;5.63;;
5022;SDS011;2530;47.990;7.866;2023-06-22T10:10:35;6.60;;;5.78;;
5022;SDS011;2530;47.990;7.866;2023-06-22T10:13:04;8.60;;;6.90;;
5022;SDS011;2530;47.990;7.866;2023-06-22T10:15:36;9.65;;;6.30;;
5022;SDS011;2530;47.990;7.866;2023-06-22T10:18:02;7.75;;;6.45;;
5022;SDS011;2530;47.990;7.866;2023-06-22T10:20:28;8.38;;;6.13;;
5022;SDS011;2530;47.990;7.866;2023-06-22T10:22:54;8.48;;;6.85;;
5022;SDS011;2530;47.990;7.866;2023-06-22T10:25:19;7.83;;;6.90;;
5022;SDS011;2530;47.990;7.866;2023-06-22T10:27:46;8.90;;;6.53;;
5022;SDS011;2530;47.990;7.866;2023-06-22T10:30:12;10.55;;;7.65;;
5022;SDS011;2530;47.990;7.866;2023-06-22T10:32:38;9.48;;;7.00;;
5022;SDS011;2530;47.990;7.866;2023-06-22T10:35:04;8.68;;;7.65;;
5022;SDS011;2530;47.990;7.866;2023-06-22T10:37:30;10.10;;;7.05;;
5022;SDS011;2530;47.990;7.866;2023-06-22T10:39:56;11.97;;;7.47;;
5022;SDS011;2530;47.990;7.866;2023-06-22T10:42:22;13.30;;;7.30;;
5022;SDS011;2530;47.990;7.866;2023-06-22T10:44:47;9.60;;;7.10;;
5022;SDS011;2530;47.990;7.866;2023-06-22T10:47:13;11.20;;;6.77;;
5022;SDS011;2530;47.990;7.866;2023-06-22T10:49:39;9.63;;;7.10;;
5022;SDS011;2530;47.990;7.866;2023-06-22T10:52:07;8.80;;;6.60;;
5022;SDS011;2530;47.990;7.866;2023-06-22T10:54:33;7.38;;;6.40;;
5022;SDS011;2530;47.990;7.866;2023-06-22T10:57:00;7.93;;;6.55;;
5022;SDS011;2530;47.990;7.866;2023-06-22T10:59:26;10.18;;;6.78;;
5022;SDS011;2530;47.990;7.866;2023-06-22T11:01:52;9.77;;;6.65;;
5022;SDS011;2530;47.990;7.866;2023-06-22T11:04:18;9.13;;;7.07;;
5022;SDS011;2530;47.990;7.866;2023-06-22T11:06:43;9.65;;;7.35;;
5022;SDS011;2530;47.990;7.866;2023-06-22T11:09:09;9.00;;;7.30;;
5022;SDS011;2530;47.990;7.866;2023-06-22T11:11:35;7.95;;;6.93;;
5022;SDS011;2530;47.990;7.866;2023-06-22T11:14:00;9.27;;;7.47;;
5022;SDS011;2530;47.990;7.866;2023-06-22T11:16:26;8.67;;;7.30;;
5022;SDS011;2530;47.990;7.866;2023-06-22T11:18:52;11.90;;;7.50;;
5022;SDS011;2530;47.990;7.866;2023-06-22T11:21:17;9.00;;;6.50;;
5022;SDS011;2530;47.990;7.866;2023-06-22T11:23:43;10.30;;;7.17;;
5022;SDS011;2530;47.990;7.866;2023-06-22T11:26:09;8.57;;;7.63;;
5022;SDS011;2530;47.990;7.866;2023-06-22T11:28:35;10.02;;;6.85;;
5022;SDS011;2530;47.990;7.866;2023-06-22T11:31:00;9.07;;;7.63;;
5022;SDS011;2530;47.990;7.866;2023-06-22T11:33:26;9.30;;;7.30;;
5022;SDS011;2530;47.990;7.866;2023-06-22T11:35:52;10.90;;;7.55;;
5022;SDS011;2530;47.990;7.866;2023-06-22T11:38:18;9.60;;;8.03;;
5022;SDS011;2530;47.990;7.866;2023-06-22T11:40:43;10.37;;;7.60;;
5022;SDS011;2530;47.990;7.866;2023-06-22T11:43:09;10.20;;;7.60;;
5022;SDS011;2530;47.990;7.866;2023-06-22T11:45:34;10.32;;;8.20;;
5022;SDS011;2530;47.990;7.866;2023-06-22T11:48:00;8.00;;;7.20;;
5022;SDS011;2530;47.990;7.866;2023-06-22T11:50:25;10.52;;;8.02;;
5022;SDS011;2530;47.990;7.866;2023-06-22T11:52:51;10.52;;;8.00;;
5022;SDS011;2530;47.990;7.866;2023-06-22T11:55:17;10.82;;;7.65;;
5022;SDS011;2530;47.990;7.866;2023-06-22T11:57:54;10.73;;;6.90;;
5022;SDS011;2530;47.990;7.866;2023-06-22T12:00:21;9.32;;;6.97;;
5022;SDS011;2530;47.990;7.866;2023-06-22T12:02:48;8.98;;;6.45;;
5022;SDS011;2530;47.990;7.866;2023-06-22T12:05:16;8.65;;;7.07;;
5022;SDS011;2530;47.990;7.866;2023-06-22T12:07:43;9.88;;;7.30;;
5022;SDS011;2530;47.990;7.866;2023-06-22T12:10:08;9.90;;;6.90;;
5022;SDS011;2530;47.990;7.866;2023-06-22T12:12:34;9.52;;;7.38;;
5022;SDS011;2530;47.990;7.866;2023-06-22T12:15:00;10.70;;;6.20;;
5022;SDS011;2530;47.990;7.866;2023-06-22T12:17:28;8.87;;;6.53;;
5022;SDS011;2530;47.990;7.866;2023-06-22T12:19:54;7.80;;;6.80;;
5022;SDS011;2530;47.990;7.866;2023-06-22T12:22:20;7.40;;;6.60;;
5022;SDS011;2530;47.990;7.866;2023-06-22T12:24:45;8.50;;;6.80;;
5022;SDS011;2530;47.990;7.866;2023-06-22T12:27:11;11.10;;;7.70;;
5022;SDS011;2530;47.990;7.866;2023-06-22T12:29:37;12.50;;;8.60;;
5022;SDS011;2530;47.990;7.866;2023-06-22T12:32:02;13.75;;;9.30;;
5022;SDS011;2530;47.990;7.866;2023-06-22T12:34:28;11.63;;;9.57;;
5022;SDS011;2530;47.990;7.866;2023-06-22T12:36:54;14.40;;;9.40;;
5022;SDS011;2530;47.990;7.866;2023-06-22T12:39:19;13.33;;;9.23;;
5022;SDS011;2530;47.990;7.866;2023-06-22T12:41:45;9.55;;;7.93;;
5022;SDS011;2530;47.990;7.866;2023-06-22T12:44:10;10.50;;;7.97;;
5022;SDS011;2530;47.990;7.866;2023-06-22T12:46:36;10.60;;;7.67;;
5022;SDS011;2530;47.990;7.866;2023-06-22T12:49:03;11.50;;;7.43;;
5022;SDS011;2530;47.990;7.866;2023-06-22T12:51:29;11.65;;;8.00;;
5022;SDS011;2530;47.990;7.866;2023-06-22T12:53:55;10.95;;;7.47;;
5022;SDS011;2530;47.990;7.866;2023-06-22T12:56:21;12.90;;;7.50;;
5022;SDS011;2530;47.990;7.866;2023-06-22T12:58:47;10.75;;;6.90;;
5022;SDS011;2530;47.990;7.866;2023-06-22T13:01:13;13.60;;;6.30;;
5022;SDS011;2530;47.990;7.866;2023-06-22T13:03:39;10.90;;;7.27;;
5022;SDS011;2530;47.990;7.866;2023-06-22T13:06:04;9.30;;;6.70;;
5022;SDS011;2530;47.990;7.866;2023-06-22T13:08:30;11.90;;;7.00;;
5022;SDS011;2530;47.990;7.866;2023-06-22T13:10:55;10.38;;;7.00;;
5022;SDS011;2530;47.990;7.866;2023-06-22T13:13:25;11.88;;;7.30;;
5022;SDS011;2530;47.990;7.866;2023-06-22T13:15:52;10.30;;;6.60;;
5022;SDS011;2530;47.990;7.866;2023-06-22T13:18:18;10.32;;;6.60;;
5022;SDS011;2530;47.990;7.866;2023-06-22T13:20:44;8.60;;;6.43;;
5022;SDS011;2530;47.990;7.866;2023-06-22T13:23:10;10.03;;;6.33;;
5022;SDS011;2530;47.990;7.866;2023-06-22T13:25:36;11.30;;;6.43;;
5022;SDS011;2530;47.990;7.866;2023-06-22T13:28:01;8.93;;;5.90;;
5022;SDS011;2530;47.990;7.866;2023-06-22T13:30:27;9.70;;;6.25;;
5022;SDS011;2530;47.990;7.866;2023-06-22T13:32:53;8.07;;;6.10;;
5022;SDS011;2530;47.990;7.866;2023-06-22T13:35:18;9.90;;;6.27;;
5022;SDS011;2530;47.990;7.866;2023-06-22T13:37:44;8.05;;;5.85;;
5022;SDS011;2530;47.990;7.866;2023-06-22T13:40:09;10.13;;;6.73;;
5022;SDS011;2530;47.990;7.866;2023-06-22T13:42:35;7.72;;;5.88;;
5022;SDS011;2530;47.990;7.866;2023-06-22T13:45:01;10.07;;;5.80;;
5022;SDS011;2530;47.990;7.866;2023-06-22T13:47:27;10.43;;;6.60;;
5022;SDS011;2530;47.990;7.866;2023-06-22T13:49:54;9.30;;;6.22;;
5022;SDS011;2530;47.990;7.866;2023-06-22T13:52:19;9.20;;;5.90;;
5022;SDS011;2530;47.990;7.866;2023-06-22T13:54:45;12.20;;;6.40;;
5022;SDS011;2530;47.990;7.866;2023-06-22T13:57:10;8.30;;;5.40;;
5022;SDS011;2530;47.990;7.866;2023-06-22T13:59:36;10.13;;;5.40;;
5022;SDS011;2530;47.990;7.866;2023-06-22T14:02:01;10.83;;;5.87;;
5022;SDS011;2530;47.990;7.866;2023-06-22T14:04:27;11.20;;;5.47;;
5022;SDS011;2530;47.990;7.866;2023-06-22T14:06:53;10.38;;;5.80;;
5022;SDS011;2530;47.990;7.866;2023-06-22T14:09:20;10.07;;;5.60;;
5022;SDS011;2530;47.990;7.866;2023-06-22T14:11:46;12.37;;;6.27;;
5022;SDS011;2530;47.990;7.866;2023-06-22T14:14:11;10.25;;;6.10;;
5022;SDS011;2530;47.990;7.866;2023-06-22T14:16:37;10.93;;;6.23;;
5022;SDS011;2530;47.990;7.866;2023-06-22T14:19:03;8.83;;;6.10;;
5022;SDS011;2530;47.990;7.866;2023-06-22T14:21:28;8.65;;;5.57;;
5022;SDS011;2530;47.990;7.866;2023-06-22T14:23:54;6.97;;;5.87;;
5022;SDS011;2530;47.990;7.866;2023-06-22T14:26:20;11.30;;;6.20;;
5022;SDS011;2530;47.990;7.866;2023-06-22T14:28:46;8.90;;;6.20;;
5022;SDS011;2530;47.990;7.866;2023-06-22T14:31:16;10.32;;;6.25;;
5022;SDS011;2530;47.990;7.866;2023-06-22T14:33:45;12.32;;;6.25;;
5022;SDS011;2530;47.990;7.866;2023-06-22T14:36:11;10.90;;;5.40;;
5022;SDS011;2530;47.990;7.866;2023-06-22T14:38:37;11.75;;;6.40;;
5022;SDS011;2530;47.990;7.866;2023-06-22T14:41:03;10.13;;;6.05;;
5022;SDS011;2530;47.990;7.866;2023-06-22T14:43:28;15.27;;;5.50;;
5022;SDS011;2530;47.990;7.866;2023-06-22T14:45:54;8.32;;;5.05;;
5022;SDS011;2530;47.990;7.866;2023-06-22T14:48:20;8.02;;;5.30;;
5022;SDS011;2530;47.990;7.866;2023-06-22T14:50:45;9.53;;;5.40;;
5022;SDS011;2530;47.990;7.866;2023-06-22T14:53:11;10.40;;;5.50;;
5022;SDS011;2530;47.990;7.866;2023-06-22T14:55:36;9.60;;;5.68;;
5022;SDS011;2530;47.990;7.866;2023-06-22T14:58:02;12.63;;;5.60;;
5022;SDS011;2530;47.990;7.866;2023-06-22T15:00:27;9.23;;;5.20;;
5022;SDS011;2530;47.990;7.866;2023-06-22T15:02:53;10.23;;;5.10;;
5022;SDS011;2530;47.990;7.866;2023-06-22T15:05:18;10.85;;;4.90;;
5022;SDS011;2530;47.990;7.866;2023-06-22T15:07:44;9.90;;;5.90;;
5022;SDS011;2530;47.990;7.866;2023-06-22T15:10:09;8.87;;;4.37;;
5022;SDS011;2530;47.990;7.866;2023-06-22T15:12:35;9.38;;;4.80;;
5022;SDS011;2530;47.990;7.866;2023-06-22T15:15:01;9.77;;;4.63;;
5022;SDS011;2530;47.990;7.866;2023-06-22T15:17:26;7.90;;;4.40;;